sensor_id;sensor_type;location;lat;lon;timestamp;P1;durP1;ratioP1;P2;durP2;ratioP2
31298;SDS011;17927;52.350;13.402;2023-04-24T00:00:00;6.00;;;3.72;;
31298;SDS011;17927;52.350;13.402;2023-04-24T00:02:25;4.10;;;3.80;;
31298;SDS011;17927;52.350;13.402;2023-04-24T00:04:51;3.78;;;3.47;;
31298;SDS011;17927;52.350;13.402;2023-04-24T00:07:16;4.40;;;4.00;;
31298;SDS011;17927;52.350;13.402;2023-04-24T00:09:42;4.38;;;4.05;;
31298;SDS011;17927;52.350;13.402;2023-04-24T00:12:08;3.85;;;3.65;;
31298;SDS011;17927;52.350;13.402;2023-04-24T00:14:34;4.10;;;3.80;;
31298;SDS011;17927;52.350;13.402;2023-04-24T00:17:00;4.00;;;3.80;;
31298;SDS011;17927;52.350;13.402;2023-04-24T00:19:27;4.45;;;4.05;;
31298;SDS011;17927;52.350;13.402;2023-04-24T00:21:53;4.70;;;4.30;;
31298;SDS011;17927;52.350;13.402;2023-04-24T00:24:18;5.28;;;3.92;;
31298;SDS011;17927;52.350;13.402;2023-04-24T00:26:44;4.30;;;3.90;;
31298;SDS011;17927;52.350;13.402;2023-04-24T00:29:09;4.60;;;4.30;;
31298;SDS011;17927;52.350;13.402;2023-04-24T00:31:34;3.65;;;3.35;;
31298;SDS011;17927;52.350;13.402;2023-04-24T00:34:00;4.10;;;3.80;;
31298;SDS011;17927;52.350;13.402;2023-04-24T00:36:26;4.38;;;3.85;;
31298;SDS011;17927;52.350;13.402;2023-04-24T00:38:52;4.60;;;4.30;;
31298;SDS011;17927;52.350;13.402;2023-04-24T00:41:17;5.03;;;3.70;;
31298;SDS011;17927;52.350;13.402;2023-04-24T00:43:42;4.03;;;3.80;;
31298;SDS011;17927;52.350;13.402;2023-04-24T00:46:08;4.28;;;3.97;;
31298;SDS011;17927;52.350;13.402;2023-04-24T00:48:33;4.35;;;4.05;;
31298;SDS011;17927;52.350;13.402;2023-04-24T00:50:59;4.90;;;4.60;;
31298;SDS011;17927;52.350;13.402;2023-04-24T00:53:24;5.20;;;4.22;;
31298;SDS011;17927;52.350;13.402;2023-04-24T00:55:49;3.65;;;3.45;;
31298;SDS011;17927;52.350;13.402;2023-04-24T00:58:15;4.20;;;3.90;;
31298;SDS011;17927;52.350;13.402;2023-04-24T01:00:41;4.00;;;3.67;;
31298;SDS011;17927;52.350;13.402;2023-04-24T01:03:06;5.18;;;4.20;;
31298;SDS011;17927;52.350;13.402;2023-04-24T01:05:32;4.50;;;4.20;;
31298;SDS011;17927;52.350;13.402;2023-04-24T01:07:58;4.05;;;3.85;;
31298;SDS011;17927;52.350;13.402;2023-04-24T01:10:24;4.88;;;4.57;;
31298;SDS011;17927;52.350;13.402;2023-04-24T01:12:50;3.88;;;3.67;;
31298;SDS011;17927;52.350;13.402;2023-04-24T01:15:16;5.10;;;4.35;;
31298;SDS011;17927;52.350;13.402;2023-04-24T01:17:42;4.45;;;4.15;;
31298;SDS011;17927;52.350;13.402;2023-04-24T01:20:07;4.70;;;4.40;;
31298;SDS011;17927;52.350;13.402;2023-04-24T01:22:34;5.20;;;4.80;;
31298;SDS011;17927;52.350;13.402;2023-04-24T01:24:59;4.60;;;4.30;;
31298;SDS011;17927;52.350;13.402;2023-04-24T01:27:25;6.50;;;4.10;;
31298;SDS011;17927;52.350;13.402;2023-04-24T01:29:50;4.45;;;4.15;;
31298;SDS011;17927;52.350;13.402;2023-04-24T01:32:17;4.65;;;4.30;;
31298;SDS011;17927;52.350;13.402;2023-04-24T01:34:43;6.72;;;4.78;;
31298;SDS011;17927;52.350;13.402;2023-04-24T01:37:09;4.18;;;3.70;;
31298;SDS011;17927;52.350;13.402;2023-04-24T01:39:34;4.03;;;3.78;;
31298;SDS011;17927;52.350;13.402;2023-04-24T01:42:00;4.38;;;4.07;;
31298;SDS011;17927;52.350;13.402;2023-04-24T01:44:27;4.45;;;3.88;;
31298;SDS011;17927;52.350;13.402;2023-04-24T01:46:52;4.07;;;3.78;;
31298;SDS011;17927;52.350;13.402;2023-04-24T01:49:19;4.88;;;4.47;;
31298;SDS011;17927;52.350;13.402;2023-04-24T01:51:45;4.55;;;4.18;;
31298;SDS011;17927;52.350;13.402;2023-04-24T01:54:11;4.30;;;4.00;;
31298;SDS011;17927;52.350;13.402;2023-04-24T01:56:37;4.28;;;3.97;;
31298;SDS011;17927;52.350;13.402;2023-04-24T01:59:10;4.60;;;4.30;;
31298;SDS011;17927;52.350;13.402;2023-04-24T02:01:36;4.85;;;4.38;;
31298;SDS011;17927;52.350;13.402;2023-04-24T02:04:02;4.20;;;3.97;;
31298;SDS011;17927;52.350;13.402;2023-04-24T02:06:28;4.28;;;3.88;;
31298;SDS011;17927;52.350;13.402;2023-04-24T02:08:53;5.18;;;4.40;;
31298;SDS011;17927;52.350;13.402;2023-04-24T02:11:19;4.88;;;4.47;;
31298;SDS011;17927;52.350;13.402;2023-04-24T02:13:44;4.85;;;4.55;;
31298;SDS011;17927;52.350;13.402;2023-04-24T02:16:09;5.32;;;4.45;;
31298;SDS011;17927;52.350;13.402;2023-04-24T02:18:35;5.07;;;4.53;;
31298;SDS011;17927;52.350;13.402;2023-04-24T02:21:00;9.00;;;4.68;;
31298;SDS011;17927;52.350;13.402;2023-04-24T02:23:25;4.57;;;4.18;;
31298;SDS011;17927;52.350;13.402;2023-04-24T02:25:52;6.90;;;4.60;;
31298;SDS011;17927;52.350;13.402;2023-04-24T02:28:18;4.82;;;4.43;;
31298;SDS011;17927;52.350;13.402;2023-04-24T02:30:43;4.38;;;4.07;;
31298;SDS011;17927;52.350;13.402;2023-04-24T02:33:08;5.65;;;4.10;;
31298;SDS011;17927;52.350;13.402;2023-04-24T02:35:33;5.13;;;4.65;;
31298;SDS011;17927;52.350;13.402;2023-04-24T02:37:59;4.35;;;4.05;;
31298;SDS011;17927;52.350;13.402;2023-04-24T02:40:25;4.78;;;4.30;;
31298;SDS011;17927;52.350;13.402;2023-04-24T02:42:50;4.63;;;4.32;;
31298;SDS011;17927;52.350;13.402;2023-04-24T02:45:15;4.75;;;4.45;;
31298;SDS011;17927;52.350;13.402;2023-04-24T02:47:40;8.60;;;4.32;;
31298;SDS011;17927;52.350;13.402;2023-04-24T02:50:06;4.15;;;3.85;;
31298;SDS011;17927;52.350;13.402;2023-04-24T02:52:32;4.47;;;4.05;;
31298;SDS011;17927;52.350;13.402;2023-04-24T02:54:57;4.88;;;3.95;;
31298;SDS011;17927;52.350;13.402;2023-04-24T02:57:22;4.72;;;4.43;;
31298;SDS011;17927;52.350;13.402;2023-04-24T02:59:47;4.63;;;4.32;;
31298;SDS011;17927;52.350;13.402;2023-04-24T03:02:13;4.20;;;3.90;;
31298;SDS011;17927;52.350;13.402;2023-04-24T03:04:38;4.43;;;4.13;;
31298;SDS011;17927;52.350;13.402;2023-04-24T03:07:04;5.18;;;4.78;;
31298;SDS011;17927;52.350;13.402;2023-04-24T03:09:30;4.32;;;3.92;;
31298;SDS011;17927;52.350;13.402;2023-04-24T03:11:56;6.22;;;4.40;;
31298;SDS011;17927;52.350;13.402;2023-04-24T03:14:23;5.57;;;4.40;;
31298;SDS011;17927;52.350;13.402;2023-04-24T03:16:48;4.70;;;4.40;;
31298;SDS011;17927;52.350;13.402;2023-04-24T03:19:13;5.90;;;4.05;;
31298;SDS011;17927;52.350;13.402;2023-04-24T03:21:39;5.07;;;4.65;;
31298;SDS011;17927;52.350;13.402;2023-04-24T03:24:05;8.20;;;4.50;;
31298;SDS011;17927;52.350;13.402;2023-04-24T03:26:32;4.47;;;4.18;;
31298;SDS011;17927;52.350;13.402;2023-04-24T03:28:57;5.18;;;4.20;;
31298;SDS011;17927;52.350;13.402;2023-04-24T03:31:22;4.95;;;4.50;;
31298;SDS011;17927;52.350;13.402;2023-04-24T03:33:48;5.50;;;5.10;;
31298;SDS011;17927;52.350;13.402;2023-04-24T03:36:13;5.13;;;4.72;;
31298;SDS011;17927;52.350;13.402;2023-04-24T03:38:39;5.20;;;4.70;;
31298;SDS011;17927;52.350;13.402;2023-04-24T03:41:04;4.22;;;3.92;;
31298;SDS011;17927;52.350;13.402;2023-04-24T03:43:29;4.28;;;3.97;;
31298;SDS011;17927;52.350;13.402;2023-04-24T03:45:55;4.78;;;4.47;;
31298;SDS011;17927;52.350;13.402;2023-04-24T03:48:20;4.72;;;4.20;;
31298;SDS011;17927;52.350;13.402;2023-04-24T03:50:45;4.90;;;4.50;;
31298;SDS011;17927;52.350;13.402;2023-04-24T03:53:10;4.55;;;4.22;;
31298;SDS011;17927;52.350;13.402;2023-04-24T03:55:36;4.53;;;4.13;;
31298;SDS011;17927;52.350;13.402;2023-04-24T03:58:01;5.93;;;3.90;;
31298;SDS011;17927;52.350;13.402;2023-04-24T04:00:26;4.20;;;3.75;;
31298;SDS011;17927;52.350;13.402;2023-04-24T04:02:51;3.72;;;3.53;;
31298;SDS011;17927;52.350;13.402;2023-04-24T04:05:16;3.80;;;3.50;;
31298;SDS011;17927;52.350;13.402;2023-04-24T04:07:42;3.50;;;3.30;;
31298;SDS011;17927;52.350;13.402;2023-04-24T04:10:07;7.28;;;3.50;;
31298;SDS011;17927;52.350;13.402;2023-04-24T04:12:33;6.30;;;3.17;;
31298;SDS011;17927;52.350;13.402;2023-04-24T04:14:58;3.55;;;3.33;;
31298;SDS011;17927;52.350;13.402;2023-04-24T04:17:24;3.78;;;3.42;;
31298;SDS011;17927;52.350;13.402;2023-04-24T04:19:49;3.55;;;3.30;;
31298;SDS011;17927;52.350;13.402;2023-04-24T04:22:14;3.03;;;2.83;;
31298;SDS011;17927;52.350;13.402;2023-04-24T04:24:39;2.65;;;2.45;;
31298;SDS011;17927;52.350;13.402;2023-04-24T04:27:05;2.97;;;2.75;;
31298;SDS011;17927;52.350;13.402;2023-04-24T04:29:31;3.30;;;2.75;;
31298;SDS011;17927;52.350;13.402;2023-04-24T04:31:57;3.50;;;3.10;;
31298;SDS011;17927;52.350;13.402;2023-04-24T04:34:23;2.80;;;2.60;;
31298;SDS011;17927;52.350;13.402;2023-04-24T04:36:48;3.10;;;2.80;;
31298;SDS011;17927;52.350;13.402;2023-04-24T04:39:13;2.80;;;2.60;;
31298;SDS011;17927;52.350;13.402;2023-04-24T04:41:39;4.13;;;3.40;;
31298;SDS011;17927;52.350;13.402;2023-04-24T04:44:05;2.58;;;2.45;;
31298;SDS011;17927;52.350;13.402;2023-04-24T04:46:31;2.97;;;2.78;;
31298;SDS011;17927;52.350;13.402;2023-04-24T04:48:59;2.50;;;2.35;;
31298;SDS011;17927;52.350;13.402;2023-04-24T04:51:27;3.38;;;3.17;;
31298;SDS011;17927;52.350;13.402;2023-04-24T04:53:52;10.52;;;9.13;;
31298;SDS011;17927;52.350;13.402;2023-04-24T05:12:48;2.60;;;2.42;;
31298;SDS011;17927;52.350;13.402;2023-04-24T05:15:14;3.33;;;3.13;;
31298;SDS011;17927;52.350;13.402;2023-04-24T05:17:39;2.47;;;2.38;;
31298;SDS011;17927;52.350;13.402;2023-04-24T05:20:05;2.50;;;2.17;;
31298;SDS011;17927;52.350;13.402;2023-04-24T05:22:32;5.55;;;2.17;;
31298;SDS011;17927;52.350;13.402;2023-04-24T05:24:58;2.15;;;2.05;;
31298;SDS011;17927;52.350;13.402;2023-04-24T05:27:24;2.30;;;2.10;;
31298;SDS011;17927;52.350;13.402;2023-04-24T05:29:49;2.22;;;1.85;;
31298;SDS011;17927;52.350;13.402;2023-04-24T05:32:14;1.90;;;1.80;;
31298;SDS011;17927;52.350;13.402;2023-04-24T05:34:40;2.30;;;1.80;;
31298;SDS011;17927;52.350;13.402;2023-04-24T05:37:05;1.75;;;1.65;;
31298;SDS011;17927;52.350;13.402;2023-04-24T05:39:34;2.28;;;2.13;;
31298;SDS011;17927;52.350;13.402;2023-04-24T05:42:00;2.13;;;2.00;;
31298;SDS011;17927;52.350;13.402;2023-04-24T05:44:26;2.10;;;1.95;;
31298;SDS011;17927;52.350;13.402;2023-04-24T05:46:51;2.72;;;2.00;;
31298;SDS011;17927;52.350;13.402;2023-04-24T05:49:16;1.83;;;1.73;;
31298;SDS011;17927;52.350;13.402;2023-04-24T05:51:42;2.00;;;1.75;;
31298;SDS011;17927;52.350;13.402;2023-04-24T05:54:07;4.15;;;1.98;;
31298;SDS011;17927;52.350;13.402;2023-04-24T05:56:32;1.83;;;1.73;;
31298;SDS011;17927;52.350;13.402;2023-04-24T05:58:57;1.92;;;1.83;;
31298;SDS011;17927;52.350;13.402;2023-04-24T06:01:23;4.38;;;1.92;;
31298;SDS011;17927;52.350;13.402;2023-04-24T06:03:50;2.58;;;1.90;;
31298;SDS011;17927;52.350;13.402;2023-04-24T06:06:15;2.20;;;2.00;;
31298;SDS011;17927;52.350;13.402;2023-04-24T06:08:40;1.52;;;1.42;;
31298;SDS011;17927;52.350;13.402;2023-04-24T06:11:07;2.08;;;1.85;;
31298;SDS011;17927;52.350;13.402;2023-04-24T06:13:32;2.08;;;1.98;;
31298;SDS011;17927;52.350;13.402;2023-04-24T06:15:57;2.60;;;1.77;;
31298;SDS011;17927;52.350;13.402;2023-04-24T06:18:23;1.92;;;1.77;;
31298;SDS011;17927;52.350;13.402;2023-04-24T06:20:48;1.92;;;1.40;;
31298;SDS011;17927;52.350;13.402;2023-04-24T06:23:14;2.10;;;1.90;;
31298;SDS011;17927;52.350;13.402;2023-04-24T06:25:39;1.63;;;1.50;;
31298;SDS011;17927;52.350;13.402;2023-04-24T06:28:05;1.55;;;1.45;;
31298;SDS011;17927;52.350;13.402;2023-04-24T06:30:30;1.50;;;1.40;;
31298;SDS011;17927;52.350;13.402;2023-04-24T06:32:56;1.85;;;1.75;;
31298;SDS011;17927;52.350;13.402;2023-04-24T06:35:21;1.48;;;1.38;;
31298;SDS011;17927;52.350;13.402;2023-04-24T06:37:46;1.42;;;1.33;;
31298;SDS011;17927;52.350;13.402;2023-04-24T06:40:12;1.58;;;1.38;;
31298;SDS011;17927;52.350;13.402;2023-04-24T06:42:37;1.50;;;1.40;;
31298;SDS011;17927;52.350;13.402;2023-04-24T06:45:03;1.35;;;1.25;;
31298;SDS011;17927;52.350;13.402;2023-04-24T06:47:28;1.98;;;0.88;;
31298;SDS011;17927;52.350;13.402;2023-04-24T06:49:54;1.35;;;1.05;;
31298;SDS011;17927;52.350;13.402;2023-04-24T06:52:20;1.27;;;1.20;;
31298;SDS011;17927;52.350;13.402;2023-04-24T06:54:45;0.90;;;0.90;;
31298;SDS011;17927;52.350;13.402;2023-04-24T06:57:10;2.90;;;0.95;;
31298;SDS011;17927;52.350;13.402;2023-04-24T06:59:36;1.50;;;1.40;;
31298;SDS011;17927;52.350;13.402;2023-04-24T07:02:02;1.55;;;0.90;;
31298;SDS011;17927;52.350;13.402;2023-04-24T07:04:27;0.90;;;0.90;;
31298;SDS011;17927;52.350;13.402;2023-04-24T07:06:53;0.82;;;0.80;;
31298;SDS011;17927;52.350;13.402;2023-04-24T07:09:23;1.67;;;1.10;;
31298;SDS011;17927;52.350;13.402;2023-04-24T07:11:49;0.80;;;0.80;;
31298;SDS011;17927;52.350;13.402;2023-04-24T07:14:14;3.45;;;0.90;;
31298;SDS011;17927;52.350;13.402;2023-04-24T07:16:40;0.85;;;0.82;;
31298;SDS011;17927;52.350;13.402;2023-04-24T07:19:05;2.28;;;1.63;;
31298;SDS011;17927;52.350;13.402;2023-04-24T07:21:31;1.38;;;0.80;;
31298;SDS011;17927;52.350;13.402;2023-04-24T07:23:57;1.00;;;0.90;;
31298;SDS011;17927;52.350;13.402;2023-04-24T07:26:22;1.95;;;1.10;;
31298;SDS011;17927;52.350;13.402;2023-04-24T07:28:48;0.82;;;0.73;;
31298;SDS011;17927;52.350;13.402;2023-04-24T07:31:13;0.98;;;0.60;;
31298;SDS011;17927;52.350;13.402;2023-04-24T07:33:38;1.00;;;1.00;;
31298;SDS011;17927;52.350;13.402;2023-04-24T07:36:04;1.85;;;0.73;;
31298;SDS011;17927;52.350;13.402;2023-04-24T07:38:29;1.77;;;0.70;;
31298;SDS011;17927;52.350;13.402;2023-04-24T07:40:56;0.80;;;0.80;;
31298;SDS011;17927;52.350;13.402;2023-04-24T07:43:21;2.13;;;0.70;;
31298;SDS011;17927;52.350;13.402;2023-04-24T07:45:47;0.68;;;0.50;;
31298;SDS011;17927;52.350;13.402;2023-04-24T07:48:12;0.82;;;0.70;;
31298;SDS011;17927;52.350;13.402;2023-04-24T07:50:39;0.80;;;0.50;;
31298;SDS011;17927;52.350;13.402;2023-04-24T07:53:05;0.75;;;0.55;;
31298;SDS011;17927;52.350;13.402;2023-04-24T07:55:30;3.90;;;0.95;;
31298;SDS011;17927;52.350;13.402;2023-04-24T07:57:56;0.73;;;0.73;;
31298;SDS011;17927;52.350;13.402;2023-04-24T08:00:21;0.75;;;0.50;;
31298;SDS011;17927;52.350;13.402;2023-04-24T08:02:46;0.43;;;0.43;;
31298;SDS011;17927;52.350;13.402;2023-04-24T08:05:11;0.95;;;0.70;;
31298;SDS011;17927;52.350;13.402;2023-04-24T08:07:37;0.95;;;0.70;;
31298;SDS011;17927;52.350;13.402;2023-04-24T08:10:03;0.68;;;0.60;;
31298;SDS011;17927;52.350;13.402;2023-04-24T08:12:29;0.32;;;0.32;;
31298;SDS011;17927;52.350;13.402;2023-04-24T08:14:54;1.80;;;0.47;;
31298;SDS011;17927;52.350;13.402;2023-04-24T08:17:19;0.55;;;0.50;;
31298;SDS011;17927;52.350;13.402;2023-04-24T08:19:45;0.50;;;0.50;;
31298;SDS011;17927;52.350;13.402;2023-04-24T08:22:13;1.63;;;0.45;;
31298;SDS011;17927;52.350;13.402;2023-04-24T08:24:39;3.17;;;0.65;;
31298;SDS011;17927;52.350;13.402;2023-04-24T08:27:04;0.45;;;0.43;;
31298;SDS011;17927;52.350;13.402;2023-04-24T08:29:29;2.83;;;0.40;;
31298;SDS011;17927;52.350;13.402;2023-04-24T08:31:55;0.50;;;0.50;;
31298;SDS011;17927;52.350;13.402;2023-04-24T08:34:20;1.20;;;0.80;;
31298;SDS011;17927;52.350;13.402;2023-04-24T08:36:46;0.47;;;0.47;;
31298;SDS011;17927;52.350;13.402;2023-04-24T08:39:12;0.63;;;0.63;;
31298;SDS011;17927;52.350;13.402;2023-04-24T08:41:37;1.42;;;1.00;;
31298;SDS011;17927;52.350;13.402;2023-04-24T08:44:03;1.17;;;0.65;;
31298;SDS011;17927;52.350;13.402;2023-04-24T08:46:29;0.88;;;0.82;;
31298;SDS011;17927;52.350;13.402;2023-04-24T08:48:55;1.60;;;0.65;;
31298;SDS011;17927;52.350;13.402;2023-04-24T08:51:21;2.65;;;0.80;;
31298;SDS011;17927;52.350;13.402;2023-04-24T08:53:47;0.98;;;0.77;;
31298;SDS011;17927;52.350;13.402;2023-04-24T08:56:13;3.72;;;1.30;;
31298;SDS011;17927;52.350;13.402;2023-04-24T08:58:38;1.15;;;0.60;;
31298;SDS011;17927;52.350;13.402;2023-04-24T09:01:04;0.60;;;0.60;;
31298;SDS011;17927;52.350;13.402;2023-04-24T09:03:29;1.58;;;0.60;;
31298;SDS011;17927;52.350;13.402;2023-04-24T09:05:56;3.40;;;0.82;;
31298;SDS011;17927;52.350;13.402;2023-04-24T09:08:24;2.00;;;0.70;;
31298;SDS011;17927;52.350;13.402;2023-04-24T09:10:51;0.93;;;0.68;;
31298;SDS011;17927;52.350;13.402;2023-04-24T09:13:16;1.02;;;0.82;;
31298;SDS011;17927;52.350;13.402;2023-04-24T09:15:43;0.82;;;0.57;;
31298;SDS011;17927;52.350;13.402;2023-04-24T09:18:08;0.55;;;0.55;;
31298;SDS011;17927;52.350;13.402;2023-04-24T09:20:34;0.60;;;0.50;;
31298;SDS011;17927;52.350;13.402;2023-04-24T09:23:01;0.40;;;0.40;;
31298;SDS011;17927;52.350;13.402;2023-04-24T09:25:33;0.57;;;0.57;;
31298;SDS011;17927;52.350;13.402;2023-04-24T09:28:02;0.50;;;0.50;;
31298;SDS011;17927;52.350;13.402;2023-04-24T09:30:28;4.53;;;0.70;;
31298;SDS011;17927;52.350;13.402;2023-04-24T09:33:09;1.00;;;0.90;;
31298;SDS011;17927;52.350;13.402;2023-04-24T09:35:35;0.70;;;0.63;;
31298;SDS011;17927;52.350;13.402;2023-04-24T09:38:00;0.75;;;0.63;;
31298;SDS011;17927;52.350;13.402;2023-04-24T09:40:26;5.15;;;0.63;;
31298;SDS011;17927;52.350;13.402;2023-04-24T09:42:52;1.90;;;1.08;;
31298;SDS011;17927;52.350;13.402;2023-04-24T09:45:18;0.60;;;0.60;;
31298;SDS011;17927;52.350;13.402;2023-04-24T09:47:45;1.25;;;0.90;;
31298;SDS011;17927;52.350;13.402;2023-04-24T09:52:44;1.05;;;0.40;;
31298;SDS011;17927;52.350;13.402;2023-04-24T09:55:12;1.38;;;0.73;;
31298;SDS011;17927;52.350;13.402;2023-04-24T09:57:48;2.60;;;0.50;;
31298;SDS011;17927;52.350;13.402;2023-04-24T10:00:17;0.70;;;0.70;;
31298;SDS011;17927;52.350;13.402;2023-04-24T10:02:44;0.50;;;0.40;;
31298;SDS011;17927;52.350;13.402;2023-04-24T10:05:10;1.38;;;0.60;;
31298;SDS011;17927;52.350;13.402;2023-04-24T10:07:37;0.75;;;0.50;;
31298;SDS011;17927;52.350;13.402;2023-04-24T10:10:02;0.68;;;0.68;;
31298;SDS011;17927;52.350;13.402;2023-04-24T10:12:28;0.50;;;0.50;;
31298;SDS011;17927;52.350;13.402;2023-04-24T10:14:55;0.70;;;0.70;;
31298;SDS011;17927;52.350;13.402;2023-04-24T10:17:22;2.47;;;0.90;;
31298;SDS011;17927;52.350;13.402;2023-04-24T10:19:49;2.13;;;0.80;;
31298;SDS011;17927;52.350;13.402;2023-04-24T10:22:15;0.93;;;0.60;;
31298;SDS011;17927;52.350;13.402;2023-04-24T10:24:41;0.50;;;0.50;;
31298;SDS011;17927;52.350;13.402;2023-04-24T10:27:08;0.40;;;0.40;;
31298;SDS011;17927;52.350;13.402;2023-04-24T10:29:34;1.33;;;0.47;;
31298;SDS011;17927;52.350;13.402;2023-04-24T10:32:00;0.40;;;0.40;;
31298;SDS011;17927;52.350;13.402;2023-04-24T10:34:26;0.50;;;0.45;;
31298;SDS011;17927;52.350;13.402;2023-04-24T10:36:52;1.05;;;0.57;;
31298;SDS011;17927;52.350;13.402;2023-04-24T10:39:19;0.90;;;0.60;;
31298;SDS011;17927;52.350;13.402;2023-04-24T10:41:46;0.52;;;0.50;;
31298;SDS011;17927;52.350;13.402;2023-04-24T10:44:14;0.75;;;0.70;;
31298;SDS011;17927;52.350;13.402;2023-04-24T10:46:43;1.13;;;0.60;;
31298;SDS011;17927;52.350;13.402;2023-04-24T10:49:10;0.93;;;0.68;;
31298;SDS011;17927;52.350;13.402;2023-04-24T10:51:52;1.30;;;0.52;;
31298;SDS011;17927;52.350;13.402;2023-04-24T10:54:25;1.05;;;0.70;;
31298;SDS011;17927;52.350;13.402;2023-04-24T10:59:42;2.33;;;0.60;;
31298;SDS011;17927;52.350;13.402;2023-04-24T11:02:08;0.60;;;0.60;;
31298;SDS011;17927;52.350;13.402;2023-04-24T11:04:34;2.17;;;0.60;;
31298;SDS011;17927;52.350;13.402;2023-04-24T11:07:00;0.45;;;0.30;;
31298;SDS011;17927;52.350;13.402;2023-04-24T11:09:26;0.98;;;0.75;;
31298;SDS011;17927;52.350;13.402;2023-04-24T11:12:02;7.88;;;1.08;;
31298;SDS011;17927;52.350;13.402;2023-04-24T11:14:28;0.50;;;0.50;;
31298;SDS011;17927;52.350;13.402;2023-04-24T11:16:54;0.60;;;0.50;;
31298;SDS011;17927;52.350;13.402;2023-04-24T11:19:21;5.68;;;1.58;;
31298;SDS011;17927;52.350;13.402;2023-04-24T11:27:07;3.50;;;0.68;;
31298;SDS011;17927;52.350;13.402;2023-04-24T11:29:48;0.77;;;0.68;;
31298;SDS011;17927;52.350;13.402;2023-04-24T11:32:29;2.05;;;0.80;;
31298;SDS011;17927;52.350;13.402;2023-04-24T11:34:56;0.80;;;0.80;;
31298;SDS011;17927;52.350;13.402;2023-04-24T11:37:23;1.92;;;0.75;;
31298;SDS011;17927;52.350;13.402;2023-04-24T11:39:51;1.83;;;0.60;;
31298;SDS011;17927;52.350;13.402;2023-04-24T11:42:18;0.80;;;0.80;;
31298;SDS011;17927;52.350;13.402;2023-04-24T11:44:43;1.83;;;0.80;;
31298;SDS011;17927;52.350;13.402;2023-04-24T11:47:08;1.42;;;0.80;;
31298;SDS011;17927;52.350;13.402;2023-04-24T11:49:36;0.90;;;0.80;;
31298;SDS011;17927;52.350;13.402;2023-04-24T11:52:01;8.00;;;4.35;;
31298;SDS011;17927;52.350;13.402;2023-04-24T11:54:27;7.72;;;4.80;;
31298;SDS011;17927;52.350;13.402;2023-04-24T11:56:53;9.23;;;5.95;;
31298;SDS011;17927;52.350;13.402;2023-04-24T11:59:18;4.13;;;1.52;;
31298;SDS011;17927;52.350;13.402;2023-04-24T12:01:44;4.00;;;1.73;;
31298;SDS011;17927;52.350;13.402;2023-04-24T12:04:10;12.23;;;5.03;;
31298;SDS011;17927;52.350;13.402;2023-04-24T12:06:36;12.27;;;5.47;;
31298;SDS011;17927;52.350;13.402;2023-04-24T12:09:01;3.58;;;2.20;;
31298;SDS011;17927;52.350;13.402;2023-04-24T12:11:27;0.93;;;0.90;;
31298;SDS011;17927;52.350;13.402;2023-04-24T12:13:52;0.85;;;0.70;;
31298;SDS011;17927;52.350;13.402;2023-04-24T12:16:18;1.42;;;0.70;;
31298;SDS011;17927;52.350;13.402;2023-04-24T12:18:44;0.68;;;0.57;;
31298;SDS011;17927;52.350;13.402;2023-04-24T12:21:23;2.42;;;0.52;;
31298;SDS011;17927;52.350;13.402;2023-04-24T12:23:53;0.75;;;0.60;;
31298;SDS011;17927;52.350;13.402;2023-04-24T12:26:19;1.65;;;0.60;;
31298;SDS011;17927;52.350;13.402;2023-04-24T12:28:46;4.70;;;1.33;;
31298;SDS011;17927;52.350;13.402;2023-04-24T12:31:14;0.43;;;0.40;;
31298;SDS011;17927;52.350;13.402;2023-04-24T12:33:39;5.18;;;0.73;;
31298;SDS011;17927;52.350;13.402;2023-04-24T12:36:04;0.85;;;0.52;;
31298;SDS011;17927;52.350;13.402;2023-04-24T12:38:31;0.68;;;0.50;;
31298;SDS011;17927;52.350;13.402;2023-04-24T12:41:05;0.57;;;0.50;;
31298;SDS011;17927;52.350;13.402;2023-04-24T12:43:32;0.57;;;0.57;;
31298;SDS011;17927;52.350;13.402;2023-04-24T12:45:58;5.32;;;0.60;;
31298;SDS011;17927;52.350;13.402;2023-04-24T12:48:24;0.50;;;0.50;;
31298;SDS011;17927;52.350;13.402;2023-04-24T12:50:49;0.47;;;0.47;;
31298;SDS011;17927;52.350;13.402;2023-04-24T12:53:14;5.70;;;0.60;;
31298;SDS011;17927;52.350;13.402;2023-04-24T12:55:40;0.57;;;0.57;;
31298;SDS011;17927;52.350;13.402;2023-04-24T12:58:06;0.52;;;0.50;;
31298;SDS011;17927;52.350;13.402;2023-04-24T13:00:31;1.27;;;0.88;;
31298;SDS011;17927;52.350;13.402;2023-04-24T13:02:57;0.40;;;0.40;;
31298;SDS011;17927;52.350;13.402;2023-04-24T13:05:22;1.98;;;0.77;;
31298;SDS011;17927;52.350;13.402;2023-04-24T13:07:48;0.63;;;0.63;;
31298;SDS011;17927;52.350;13.402;2023-04-24T13:10:13;0.32;;;0.32;;
31298;SDS011;17927;52.350;13.402;2023-04-24T13:12:38;1.95;;;0.63;;
31298;SDS011;17927;52.350;13.402;2023-04-24T13:15:05;0.47;;;0.47;;
31298;SDS011;17927;52.350;13.402;2023-04-24T13:17:31;1.58;;;0.80;;
31298;SDS011;17927;52.350;13.402;2023-04-24T13:19:56;1.75;;;0.60;;
31298;SDS011;17927;52.350;13.402;2023-04-24T13:22:21;2.55;;;1.33;;
31298;SDS011;17927;52.350;13.402;2023-04-24T13:24:47;0.40;;;0.40;;
31298;SDS011;17927;52.350;13.402;2023-04-24T13:27:15;0.30;;;0.30;;
31298;SDS011;17927;52.350;13.402;2023-04-24T13:29:41;0.28;;;0.28;;
31298;SDS011;17927;52.350;13.402;2023-04-24T13:32:06;0.30;;;0.30;;
31298;SDS011;17927;52.350;13.402;2023-04-24T13:34:32;0.30;;;0.30;;
31298;SDS011;17927;52.350;13.402;2023-04-24T13:36:59;0.57;;;0.47;;
31298;SDS011;17927;52.350;13.402;2023-04-24T13:39:24;0.32;;;0.32;;
31298;SDS011;17927;52.350;13.402;2023-04-24T13:41:51;0.43;;;0.43;;
31298;SDS011;17927;52.350;13.402;2023-04-24T13:44:17;1.40;;;0.70;;
31298;SDS011;17927;52.350;13.402;2023-04-24T13:46:43;2.10;;;0.88;;
31298;SDS011;17927;52.350;13.402;2023-04-24T13:49:11;0.73;;;0.73;;
31298;SDS011;17927;52.350;13.402;2023-04-24T13:51:36;1.98;;;0.68;;
31298;SDS011;17927;52.350;13.402;2023-04-24T13:54:02;0.30;;;0.30;;
31298;SDS011;17927;52.350;13.402;2023-04-24T13:56:27;1.80;;;0.57;;
31298;SDS011;17927;52.350;13.402;2023-04-24T13:58:52;1.65;;;0.50;;
31298;SDS011;17927;52.350;13.402;2023-04-24T14:01:19;1.10;;;0.75;;
31298;SDS011;17927;52.350;13.402;2023-04-24T14:03:45;0.50;;;0.50;;
31298;SDS011;17927;52.350;13.402;2023-04-24T14:06:11;2.15;;;0.60;;
31298;SDS011;17927;52.350;13.402;2023-04-24T14:08:36;0.60;;;0.60;;
31298;SDS011;17927;52.350;13.402;2023-04-24T14:11:01;0.98;;;0.98;;
31298;SDS011;17927;52.350;13.402;2023-04-24T14:13:26;2.30;;;1.02;;
31298;SDS011;17927;52.350;13.402;2023-04-24T14:15:52;1.40;;;1.02;;
31298;SDS011;17927;52.350;13.402;2023-04-24T14:18:18;1.67;;;0.90;;
31298;SDS011;17927;52.350;13.402;2023-04-24T14:20:43;1.38;;;0.65;;
31298;SDS011;17927;52.350;13.402;2023-04-24T14:23:08;0.40;;;0.40;;
31298;SDS011;17927;52.350;13.402;2023-04-24T14:25:34;0.75;;;0.45;;
31298;SDS011;17927;52.350;13.402;2023-04-24T14:27:59;2.38;;;0.47;;
31298;SDS011;17927;52.350;13.402;2023-04-24T14:30:24;0.70;;;0.70;;
31298;SDS011;17927;52.350;13.402;2023-04-24T14:32:50;0.98;;;0.98;;
31298;SDS011;17927;52.350;13.402;2023-04-24T14:35:15;3.17;;;0.90;;
31298;SDS011;17927;52.350;13.402;2023-04-24T14:37:40;0.82;;;0.70;;
31298;SDS011;17927;52.350;13.402;2023-04-24T14:40:07;0.73;;;0.70;;
31298;SDS011;17927;52.350;13.402;2023-04-24T14:42:34;0.65;;;0.47;;
31298;SDS011;17927;52.350;13.402;2023-04-24T14:45:00;0.38;;;0.38;;
31298;SDS011;17927;52.350;13.402;2023-04-24T14:47:25;0.50;;;0.50;;
31298;SDS011;17927;52.350;13.402;2023-04-24T14:49:50;1.65;;;1.35;;
31298;SDS011;17927;52.350;13.402;2023-04-24T14:52:16;0.88;;;0.88;;